createdAt,value
2018-04-08T00:00:24.810Z,65.10
2018-04-08T00:02:52.582Z,64.90
2018-04-08T00:05:20.375Z,65.10
2018-04-08T00:07:48.210Z,65.30
2018-04-08T00:10:16.009Z,65.50
2018-04-08T00:12:43.810Z,66.10
2018-04-08T00:15:11.643Z,67.00
2018-04-08T00:17:40.188Z,69.30
2018-04-08T00:20:08.028Z,69.30
2018-04-08T00:22:35.863Z,70.90
2018-04-08T00:25:05.196Z,74.30
2018-04-08T00:27:32.963Z,73.90
2018-04-08T00:30:00.788Z,75.80
2018-04-08T00:32:29.323Z,79.00
2018-04-08T00:34:57.211Z,79.00
2018-04-08T00:37:25.036Z,79.80
2018-04-08T00:39:52.822Z,80.20
2018-04-08T00:42:20.655Z,82.00
2018-04-08T00:44:48.809Z,82.50
2018-04-08T00:47:16.587Z,82.60
2018-04-08T00:49:44.441Z,81.70
2018-04-08T00:52:12.325Z,83.10
2018-04-08T00:54:40.118Z,84.10
2018-04-08T00:57:08.659Z,89.70
2018-04-08T00:59:36.490Z,89.80
2018-04-08T01:02:05.042Z,90.90
2018-04-08T01:04:32.820Z,90.90
2018-04-08T01:07:01.677Z,93.90
2018-04-08T01:09:30.344Z,93.90
2018-04-08T01:11:58.114Z,95.00
2018-04-08T01:14:25.977Z,96.30
2018-04-08T01:16:54.578Z,99.20
2018-04-08T01:19:22.386Z,98.90
2018-04-08T01:21:50.849Z,99.50
2018-04-08T01:24:19.387Z,99.30
2018-04-08T01:26:47.154Z,99.30
2018-04-08T01:29:14.988Z,99.90
2018-04-08T01:31:42.781Z,99.90
2018-04-08T01:34:10.569Z,99.90
2018-04-08T01:36:38.478Z,99.90
2018-04-08T01:39:07.226Z,99.90
2018-04-08T01:41:35.807Z,99.90
2018-04-08T01:44:04.859Z,99.90
2018-04-08T01:46:32.645Z,99.90
2018-04-08T01:49:01.209Z,99.90
2018-04-08T01:51:29.024Z,99.90
2018-04-08T01:53:56.791Z,99.90
2018-04-08T01:56:24.567Z,99.90
2018-04-08T01:58:52.396Z,99.90
2018-04-08T02:01:20.982Z,99.90
2018-04-08T02:03:48.860Z,99.90
2018-04-08T02:06:16.717Z,99.90
2018-04-08T02:08:44.502Z,99.90
2018-04-08T02:11:12.266Z,99.90
2018-04-08T02:13:40.108Z,99.90
2018-04-08T02:16:07.886Z,99.90
2018-04-08T02:18:35.698Z,99.90
2018-04-08T02:21:04.315Z,99.90
2018-04-08T02:23:32.080Z,99.90
2018-04-08T02:25:59.991Z,99.90
2018-04-08T02:28:27.839Z,99.90
2018-04-08T02:30:55.637Z,99.90
2018-04-08T02:33:24.171Z,99.90
2018-04-08T02:35:52.119Z,99.90
2018-04-08T02:38:19.913Z,99.90
2018-04-08T02:40:47.683Z,99.90
2018-04-08T02:43:15.504Z,99.90
2018-04-08T02:45:43.271Z,99.90
2018-04-08T02:48:11.064Z,99.90
2018-04-08T02:50:38.919Z,99.90
2018-04-08T02:53:06.702Z,99.90
2018-04-08T02:55:34.467Z,99.90
2018-04-08T02:58:02.291Z,99.90
2018-04-08T03:00:30.057Z,99.90
2018-04-08T03:02:57.848Z,99.90
2018-04-08T03:05:25.698Z,99.90
2018-04-08T03:07:53.480Z,99.90
2018-04-08T03:10:21.271Z,99.90
2018-04-08T03:12:49.868Z,99.90
2018-04-08T03:15:17.688Z,99.90
2018-04-08T03:17:45.449Z,99.90
2018-04-08T03:20:13.304Z,99.90
2018-04-08T03:22:41.075Z,99.90
2018-04-08T03:25:08.872Z,99.90
2018-04-08T03:27:36.724Z,99.90
2018-04-08T03:30:05.264Z,99.90
2018-04-08T03:32:33.060Z,99.90
2018-04-08T03:35:01.677Z,99.90
2018-04-08T03:37:29.455Z,99.90
2018-04-08T03:39:57.237Z,99.90
2018-04-08T03:42:25.279Z,99.90
2018-04-08T03:44:53.051Z,99.90
2018-04-08T03:47:20.825Z,99.90
2018-04-08T03:49:48.634Z,99.90
2018-04-08T03:52:16.433Z,99.90
2018-04-08T03:54:44.218Z,99.90
2018-04-08T03:57:12.067Z,99.90
2018-04-08T03:59:39.879Z,99.90
2018-04-08T04:02:08.419Z,99.90
2018-04-08T04:04:36.263Z,99.90
2018-04-08T04:07:04.069Z,99.90
2018-04-08T04:09:31.950Z,99.90
2018-04-08T04:12:00.568Z,99.90
2018-04-08T04:14:28.386Z,99.90
2018-04-08T04:16:56.939Z,99.90
2018-04-08T04:19:36.543Z,99.90
2018-04-08T04:22:16.107Z,99.90
2018-04-08T04:25:02.635Z,99.90
2018-04-08T04:27:30.423Z,99.90
2018-04-08T04:29:58.192Z,99.90
2018-04-08T04:32:26.036Z,99.90
2018-04-08T04:34:53.833Z,99.90
2018-04-08T04:37:21.625Z,99.90
2018-04-08T04:39:49.452Z,99.90
2018-04-08T04:42:17.213Z,99.90
2018-04-08T04:44:44.988Z,99.90
2018-04-08T04:47:12.807Z,99.90
2018-04-08T04:49:40.636Z,99.90
2018-04-08T04:52:08.400Z,99.90
2018-04-08T04:54:36.236Z,99.90
2018-04-08T04:57:04.023Z,99.90
2018-04-08T04:59:31.802Z,99.90
2018-04-08T05:01:59.648Z,99.90
2018-04-08T05:04:27.439Z,99.90
2018-04-08T05:06:55.218Z,97.70
2018-04-08T05:09:23.540Z,92.20
2018-04-08T05:11:51.311Z,90.40
2018-04-08T05:14:19.874Z,75.50
2018-04-08T05:16:47.728Z,75.00
2018-04-08T05:19:15.524Z,72.10
2018-04-08T05:21:43.311Z,69.60
2018-04-08T05:24:11.172Z,67.40
2018-04-08T05:26:38.955Z,60.50
2018-04-08T05:29:07.507Z,54.40
2018-04-08T05:31:35.376Z,54.30
2018-04-08T05:34:03.168Z,49.30
2018-04-08T05:36:30.953Z,45.30
2018-04-08T05:38:58.810Z,42.40
2018-04-08T05:41:26.593Z,39.00
2018-04-08T05:43:55.132Z,32.90
2018-04-08T05:46:23.737Z,30.50
2018-04-08T05:48:51.547Z,30.40
2018-04-08T05:51:19.320Z,28.90
2018-04-08T05:53:47.922Z,29.40
2018-04-08T05:56:15.712Z,29.00
2018-04-08T05:58:43.495Z,28.40
2018-04-08T06:01:11.324Z,27.10
2018-04-08T06:03:39.109Z,27.40
2018-04-08T06:06:06.916Z,25.20
2018-04-08T06:08:35.555Z,23.40
2018-04-08T06:11:03.329Z,23.40
2018-04-08T06:13:31.875Z,22.70
2018-04-08T06:15:59.768Z,22.70
2018-04-08T06:18:27.573Z,22.20
2018-04-08T06:20:56.131Z,21.60
2018-04-08T06:23:23.959Z,21.70
2018-04-08T06:25:51.768Z,21.60
2018-04-08T06:28:19.555Z,21.90
2018-04-08T06:30:48.163Z,19.20
2018-04-08T06:33:16.011Z,19.20
2018-04-08T06:35:43.889Z,18.90
2018-04-08T06:38:11.781Z,17.90
2018-04-08T06:40:39.591Z,17.60
2018-04-08T06:43:08.222Z,17.10
2018-04-08T06:45:36.075Z,17.10
2018-04-08T06:48:03.943Z,16.80
2018-04-08T06:50:31.807Z,15.70
2018-04-08T06:52:59.653Z,15.10
2018-04-08T06:55:27.441Z,15.80
2018-04-08T06:57:55.256Z,16.00
2018-04-08T07:00:23.092Z,14.90
2018-04-08T07:02:50.939Z,13.80
2018-04-08T07:05:18.750Z,13.10
2018-04-08T07:07:46.593Z,13.50
2018-04-08T07:10:15.193Z,17.40
2018-04-08T07:12:42.969Z,17.30
2018-04-08T07:15:10.815Z,18.30
2018-04-08T07:17:39.356Z,18.40
2018-04-08T07:20:07.167Z,18.40
2018-04-08T07:22:35.166Z,18.20
2018-04-08T07:25:02.948Z,16.70
2018-04-08T07:27:30.726Z,15.80
2018-04-08T07:29:58.575Z,15.70
2018-04-08T07:32:26.371Z,15.80
2018-04-08T07:34:54.936Z,15.80
2018-04-08T07:37:23.535Z,15.10
2018-04-08T07:39:52.116Z,14.80
2018-04-08T07:42:20.696Z,14.50
2018-04-08T07:44:48.585Z,14.50
2018-04-08T07:47:16.395Z,13.50
2018-04-08T07:49:44.206Z,13.10
2018-04-08T07:52:12.093Z,13.00
2018-04-08T07:54:39.936Z,14.10
2018-04-08T07:57:07.758Z,14.50
2018-04-08T07:59:36.411Z,14.10
2018-04-08T08:02:04.696Z,13.90
2018-04-08T08:04:33.280Z,15.80
2018-04-08T08:07:01.130Z,15.80
2018-04-08T08:09:28.958Z,17.50
2018-04-08T08:11:56.751Z,17.40
2018-04-08T08:14:24.584Z,17.60
2018-04-08T08:16:52.389Z,18.00
2018-04-08T08:19:20.194Z,18.80
2018-04-08T08:21:48.037Z,18.80
2018-04-08T08:24:16.599Z,20.00
2018-04-08T08:26:44.379Z,20.00
2018-04-08T08:29:12.979Z,19.90
2018-04-08T08:31:41.550Z,19.90
2018-04-08T08:34:10.152Z,18.80
2018-04-08T08:36:38.054Z,18.80
2018-04-08T08:39:05.859Z,17.80
2018-04-08T08:41:34.400Z,20.50
2018-04-08T08:44:02.301Z,20.50
2018-04-08T08:46:30.845Z,22.90
2018-04-08T08:48:58.745Z,23.00
2018-04-08T08:51:27.349Z,18.30
2018-04-08T08:53:55.134Z,18.20
2018-04-08T08:56:22.938Z,18.00
2018-04-08T08:58:50.777Z,16.10
2018-04-08T09:01:18.615Z,16.70
2018-04-08T09:03:46.408Z,16.70
2018-04-08T09:06:14.260Z,16.90
2018-04-08T09:08:42.099Z,15.60
2018-04-08T09:11:09.877Z,17.10
2018-04-08T09:13:44.736Z,19.50
2018-04-08T09:16:13.201Z,21.60
2018-04-08T09:18:42.589Z,22.30
2018-04-08T09:21:16.040Z,21.30
2018-04-08T09:23:44.710Z,24.60
2018-04-08T09:26:13.292Z,25.70
2018-04-08T09:28:41.932Z,26.90
2018-04-08T09:31:10.631Z,27.60
2018-04-08T09:33:38.530Z,27.50
2018-04-08T09:36:06.362Z,28.40
2018-04-08T09:38:34.235Z,27.60
2018-04-08T09:41:02.044Z,28.60
2018-04-08T09:43:30.705Z,28.40
2018-04-08T09:46:00.030Z,29.10
2018-04-08T09:48:28.025Z,28.50
2018-04-08T09:50:56.719Z,28.40
2018-04-08T09:53:24.576Z,28.60
2018-04-08T09:55:52.441Z,29.70
2018-04-08T09:58:20.291Z,28.70
2018-04-08T10:14:14.311Z,28.40
2018-04-08T10:16:42.222Z,28.80
2018-04-08T10:19:10.293Z,30.00
2018-04-08T10:21:38.848Z,28.80
2018-04-08T10:24:06.919Z,29.00
2018-04-08T10:26:35.754Z,29.00
2018-04-08T10:29:04.928Z,30.10
2018-04-08T10:31:32.842Z,30.20
2018-04-08T10:34:00.992Z,29.80
2018-04-08T10:36:29.295Z,30.60
2018-04-08T10:38:57.183Z,30.20
2018-04-08T10:41:25.086Z,31.20
2018-04-08T10:43:54.477Z,30.80
2018-04-08T10:46:23.123Z,30.30
2018-04-08T10:48:52.128Z,30.20
2018-04-08T10:51:25.338Z,29.90
2018-04-08T10:53:53.409Z,29.60
2018-04-08T10:56:22.079Z,29.10
2018-04-08T10:58:50.911Z,29.10
2018-04-08T11:01:18.951Z,29.80
2018-04-08T11:03:48.141Z,28.50
2018-04-08T11:06:16.460Z,28.50
2018-04-08T11:08:44.334Z,28.60
2018-04-08T11:11:12.292Z,29.50
2018-04-08T11:13:40.368Z,29.40
2018-04-08T11:16:08.524Z,29.50
2018-04-08T11:18:38.368Z,28.80
2018-04-08T11:21:06.223Z,28.90
2018-04-08T11:23:34.098Z,29.60
2018-04-08T11:26:02.050Z,28.90
2018-04-08T11:28:30.885Z,28.80
2018-04-08T11:31:00.267Z,28.20
2018-04-08T11:33:28.923Z,28.20
2018-04-08T11:35:56.762Z,28.30
2018-04-08T11:38:24.621Z,28.10
2018-04-08T11:40:52.512Z,27.40
2018-04-08T11:43:20.328Z,28.00
2018-04-08T11:45:51.730Z,28.10
2018-04-08T11:48:21.354Z,26.90
2018-04-08T11:50:49.236Z,28.00
2018-04-08T11:53:17.023Z,27.60
2018-04-08T11:55:45.671Z,26.50
2018-04-08T11:58:13.551Z,26.40
2018-04-08T12:00:43.356Z,26.60
2018-04-08T12:03:11.267Z,26.50
2018-04-08T12:05:39.175Z,26.70
2018-04-08T12:08:07.047Z,26.90
2018-04-08T12:10:36.141Z,25.80
2018-04-08T12:13:04.067Z,25.90
2018-04-08T12:15:31.856Z,25.00
2018-04-08T12:18:00.563Z,24.80
2018-04-08T12:20:28.903Z,25.00
2018-04-08T12:22:56.751Z,24.60
2018-04-08T12:25:24.677Z,24.80
2018-04-08T12:27:54.207Z,24.70
2018-04-08T12:30:22.074Z,24.60
2018-04-08T12:32:49.966Z,24.70
2018-04-08T12:35:17.755Z,24.80
2018-04-08T12:37:45.541Z,24.70
2018-04-08T12:40:14.167Z,25.00
2018-04-08T12:42:43.511Z,25.40
2018-04-08T12:45:12.080Z,24.80
2018-04-08T12:47:39.942Z,24.80
2018-04-08T12:50:07.748Z,24.50
2018-04-08T12:52:35.596Z,24.80
2018-04-08T12:55:05.501Z,25.60
2018-04-08T12:57:33.508Z,25.60
2018-04-08T13:00:01.982Z,25.90
2018-04-08T13:02:30.834Z,26.10
2018-04-08T13:05:00.596Z,26.10
2018-04-08T13:07:28.431Z,26.10
2018-04-08T13:09:56.313Z,26.30
2018-04-08T13:12:24.122Z,26.60
2018-04-08T13:14:53.926Z,27.00
2018-04-08T13:17:23.652Z,27.30
2018-04-08T13:19:51.898Z,27.30
2018-04-08T13:22:19.685Z,27.50
2018-04-08T13:24:48.752Z,28.00
2018-04-08T13:27:16.529Z,27.90
2018-04-08T13:29:45.118Z,27.80
2018-04-08T13:32:13.712Z,27.90
2018-04-08T13:34:42.386Z,27.50
2018-04-08T13:37:10.205Z,27.50
2018-04-08T13:39:38.118Z,27.50
2018-04-08T13:42:06.467Z,27.30
2018-04-08T13:44:34.536Z,27.50
2018-04-08T13:47:02.486Z,27.40
2018-04-08T13:49:30.343Z,27.50
2018-04-08T13:51:58.138Z,27.80
2018-04-08T13:54:26.180Z,32.80
2018-04-08T13:56:53.989Z,40.90
2018-04-08T13:59:22.605Z,35.00
2018-04-08T14:01:50.489Z,35.00
2018-04-08T14:04:18.305Z,31.10
2018-04-08T14:06:46.938Z,30.20
2018-04-08T14:09:14.886Z,30.70
2018-04-08T14:11:42.750Z,29.60
2018-04-08T14:14:10.588Z,28.80
2018-04-08T14:16:38.455Z,28.60
2018-04-08T14:19:06.287Z,28.50
2018-04-08T14:21:34.857Z,28.70
2018-04-08T14:24:03.517Z,28.50
2018-04-08T14:26:31.364Z,27.90
2018-04-08T14:28:59.197Z,28.40
2018-04-08T14:31:27.735Z,27.80
2018-04-08T14:33:55.525Z,27.80
2018-04-08T14:36:24.074Z,27.90
2018-04-08T14:38:52.668Z,27.90
2018-04-08T14:41:21.114Z,27.90
2018-04-08T14:43:49.641Z,28.00
2018-04-08T14:46:18.259Z,28.20
2018-04-08T14:48:46.039Z,28.10
2018-04-08T14:51:13.840Z,28.00
2018-04-08T14:53:41.707Z,28.10
2018-04-08T14:56:09.485Z,28.40
2018-04-08T14:58:38.022Z,28.30
2018-04-08T15:01:05.874Z,28.30
2018-04-08T15:03:33.631Z,28.30
2018-04-08T15:06:01.469Z,28.00
2018-04-08T15:08:29.320Z,28.40
2018-04-08T15:10:57.865Z,29.00
2018-04-08T15:13:25.703Z,28.90
2018-04-08T15:15:53.577Z,28.50
2018-04-08T15:18:21.363Z,28.10
2018-04-08T15:20:49.140Z,28.20
2018-04-08T15:23:17.763Z,27.90
2018-04-08T15:25:45.550Z,28.20
2018-04-08T15:28:13.312Z,28.10
2018-04-08T15:30:41.145Z,27.90
2018-04-08T15:33:08.946Z,28.20
2018-04-08T15:35:36.719Z,28.50
2018-04-08T15:38:04.544Z,28.80
2018-04-08T15:40:32.988Z,31.20
2018-04-08T15:43:01.581Z,29.60
2018-04-08T15:45:29.416Z,29.60
2018-04-08T15:47:57.198Z,30.20
2018-04-08T15:50:25.747Z,29.60
2018-04-08T15:52:53.581Z,29.70
2018-04-08T15:55:21.354Z,29.30
2018-04-08T15:57:49.144Z,29.20
2018-04-08T16:00:16.982Z,29.80
2018-04-08T16:02:44.774Z,29.50
2018-04-08T16:05:13.333Z,29.80
2018-04-08T16:07:41.179Z,29.80
2018-04-08T16:10:08.945Z,29.20
2018-04-08T16:12:36.740Z,29.20
2018-04-08T16:15:04.571Z,29.90
2018-04-08T16:17:32.349Z,29.30
2018-04-08T16:20:00.167Z,28.40
2018-04-08T16:22:28.080Z,29.60
2018-04-08T16:24:55.854Z,28.20
2018-04-08T16:27:24.406Z,27.90
2018-04-08T16:29:52.235Z,28.30
2018-04-08T16:32:20.014Z,28.10
2018-04-08T16:34:47.822Z,29.30
2018-04-08T16:37:15.872Z,29.20
2018-04-08T16:39:43.667Z,29.10
2018-04-08T16:42:12.212Z,29.10
2018-04-08T16:44:40.046Z,29.00
2018-04-08T16:47:07.838Z,29.20
2018-04-08T16:49:35.610Z,30.20
2018-04-08T16:52:03.445Z,29.30
2018-04-08T16:54:31.222Z,30.30
2018-04-08T16:56:59.050Z,29.60
2018-04-08T16:59:26.941Z,30.30
2018-04-08T17:01:54.769Z,29.80
2018-04-08T17:04:23.655Z,30.80
2018-04-08T17:06:51.486Z,30.60
2018-04-08T17:09:19.263Z,30.20
2018-04-08T17:11:47.920Z,31.40
2018-04-08T17:14:16.181Z,31.40
2018-04-08T17:16:43.966Z,31.50
2018-04-08T17:19:11.774Z,31.90
2018-04-08T17:21:39.615Z,33.20
2018-04-08T17:24:08.229Z,32.90
2018-04-08T17:26:36.054Z,32.80
2018-04-08T17:29:04.739Z,34.30
2018-04-08T17:31:33.474Z,36.50
2018-04-08T17:34:01.291Z,36.60
2018-04-08T17:36:30.849Z,36.10
2018-04-08T17:38:58.677Z,36.10
2018-04-08T17:41:26.479Z,36.60
2018-04-08T17:43:55.992Z,36.50
2018-04-08T17:46:24.571Z,37.00
2018-04-08T17:48:52.384Z,37.00
2018-04-08T17:51:20.588Z,37.30
2018-04-08T17:53:48.382Z,37.50
2018-04-08T17:56:16.207Z,38.00
2018-04-08T17:58:44.104Z,38.80
2018-04-08T18:01:11.942Z,39.40
2018-04-08T18:03:39.808Z,40.00
2018-04-08T18:06:08.435Z,39.70
2018-04-08T18:08:36.975Z,39.80
2018-04-08T18:11:04.779Z,39.70
2018-04-08T18:13:33.533Z,40.30
2018-04-08T18:16:02.526Z,40.20
2018-04-08T18:18:30.295Z,40.10
2018-04-08T18:20:58.118Z,40.40
2018-04-08T18:23:25.892Z,40.50
2018-04-08T18:25:53.660Z,40.20
2018-04-08T18:28:21.495Z,40.70
2018-04-08T18:30:49.267Z,40.90
2018-04-08T18:33:17.115Z,41.10
2018-04-08T18:35:44.946Z,41.50
2018-04-08T18:38:12.725Z,41.40
2018-04-08T18:40:41.270Z,42.30
2018-04-08T18:43:09.115Z,42.30
2018-04-08T18:45:36.893Z,42.20
2018-04-08T18:48:04.699Z,41.30
2018-04-08T18:50:34.060Z,41.90
2018-04-08T18:53:01.840Z,41.60
2018-04-08T18:55:30.393Z,40.90
2018-04-08T18:57:58.221Z,40.90
2018-04-08T19:00:26.050Z,41.00
2018-04-08T19:02:54.611Z,40.80
2018-04-08T19:05:22.470Z,40.80
2018-04-08T19:07:50.257Z,40.50
2018-04-08T19:10:18.832Z,40.70
2018-04-08T19:12:47.462Z,41.20
2018-04-08T19:15:20.830Z,41.20
2018-04-08T19:17:55.017Z,42.30
2018-04-08T19:20:22.797Z,42.40
2018-04-08T19:22:51.351Z,44.00
2018-04-08T19:25:19.190Z,44.60
2018-04-08T19:27:46.966Z,44.50
2018-04-08T19:30:21.079Z,45.00
2018-04-08T19:32:48.880Z,45.00
2018-04-08T19:35:16.698Z,45.90
2018-04-08T19:37:45.340Z,46.90
2018-04-08T19:40:13.218Z,46.90
2018-04-08T19:42:40.997Z,46.70
2018-04-08T19:45:08.927Z,46.40
2018-04-08T19:47:36.710Z,45.90
2018-04-08T19:50:04.549Z,46.00
2018-04-08T19:52:32.951Z,46.10
2018-04-08T19:55:00.732Z,46.70
2018-04-08T19:57:28.529Z,46.70
2018-04-08T19:59:57.143Z,47.30
2018-04-08T20:02:24.931Z,47.30
2018-04-08T20:04:52.710Z,47.80
2018-04-08T20:07:20.556Z,48.50
2018-04-08T20:09:48.333Z,49.40
2018-04-08T20:12:16.111Z,49.70
2018-04-08T20:14:43.959Z,50.80
2018-04-08T20:17:11.756Z,51.20
2018-04-08T20:19:40.338Z,52.00
2018-04-08T20:22:08.955Z,52.70
2018-04-08T20:24:36.737Z,52.60
2018-04-08T20:27:04.523Z,53.70
2018-04-08T20:29:32.351Z,54.50
2018-04-08T20:32:00.136Z,55.50
2018-04-08T20:34:28.019Z,56.90
2018-04-08T20:36:55.846Z,57.80
2018-04-08T20:39:23.672Z,59.40
2018-04-08T20:41:51.440Z,59.20
2018-04-08T20:44:19.281Z,59.60
2018-04-08T20:46:47.839Z,61.20
2018-04-08T20:49:15.722Z,61.20
2018-04-08T20:51:44.320Z,63.50
2018-04-08T20:54:12.110Z,63.40
2018-04-08T20:56:39.875Z,62.90
2018-04-08T20:59:07.755Z,64.30
2018-04-08T21:01:35.530Z,66.00
2018-04-08T21:04:03.299Z,65.20
2018-04-08T21:06:31.166Z,65.80
2018-04-08T21:08:58.956Z,66.00
2018-04-08T21:11:28.204Z,65.40
2018-04-08T21:13:56.049Z,65.40
2018-04-08T21:16:23.815Z,65.20
2018-04-08T21:18:51.587Z,66.70
2018-04-08T21:21:19.442Z,65.80
2018-04-08T21:23:47.231Z,65.20
2018-04-08T21:26:15.014Z,63.60
2018-04-08T21:28:43.620Z,62.30
2018-04-08T21:31:11.426Z,62.30
2018-04-08T21:33:39.204Z,62.70
2018-04-08T21:36:07.026Z,62.40
2018-04-08T21:38:34.806Z,62.50
2018-04-08T21:41:02.573Z,62.50
2018-04-08T21:43:30.426Z,62.60
2018-04-08T21:45:58.203Z,63.00
2018-04-08T21:48:25.991Z,63.20
2018-04-08T21:50:54.597Z,62.30
2018-04-08T21:53:22.381Z,62.30
2018-04-08T21:55:50.144Z,63.10
2018-04-08T21:58:18.009Z,63.90
2018-04-08T22:00:45.818Z,64.30
2018-04-08T22:03:13.599Z,64.80
2018-04-08T22:05:42.216Z,67.00
2018-04-08T22:08:09.999Z,67.10
2018-04-08T22:10:37.779Z,66.70
2018-04-08T22:13:05.632Z,67.20
2018-04-08T22:15:34.174Z,66.30
2018-04-08T22:18:01.958Z,66.40
2018-04-08T22:20:29.778Z,67.80
2018-04-08T22:22:58.341Z,66.70
2018-04-08T22:25:26.152Z,66.70
2018-04-08T22:27:53.982Z,66.70
2018-04-08T22:30:22.527Z,66.70
2018-04-08T22:32:50.307Z,66.60
2018-04-08T22:35:18.158Z,67.20
2018-04-08T22:37:46.707Z,66.70
2018-04-08T22:40:14.467Z,66.70
2018-04-08T22:42:42.326Z,68.00
2018-04-08T22:45:10.095Z,68.40
2018-04-08T22:47:37.887Z,66.90
2018-04-08T22:50:05.705Z,69.40
2018-04-08T22:52:33.494Z,70.40
2018-04-08T22:55:01.278Z,70.40
2018-04-08T22:57:29.103Z,70.20
2018-04-08T22:59:56.876Z,71.50
2018-04-08T23:02:24.648Z,72.20
2018-04-08T23:04:52.489Z,72.20
2018-04-08T23:07:20.263Z,72.60
2018-04-08T23:09:48.048Z,74.30
2018-04-08T23:12:15.865Z,73.80
2018-04-08T23:14:43.640Z,74.30
2018-04-08T23:17:11.441Z,75.10
2018-04-08T23:19:39.285Z,74.20
2018-04-08T23:22:07.117Z,74.70
2018-04-08T23:24:34.904Z,74.70
2018-04-08T23:27:02.761Z,75.00
2018-04-08T23:29:30.538Z,74.70
2018-04-08T23:31:58.310Z,74.90
2018-04-08T23:34:26.138Z,74.60
2018-04-08T23:36:53.906Z,75.00
2018-04-08T23:39:21.720Z,75.30
2018-04-08T23:41:49.591Z,75.00
2018-04-08T23:44:17.387Z,74.40
2018-04-08T23:46:45.145Z,74.20
2018-04-08T23:49:12.970Z,73.90
2018-04-08T23:51:40.735Z,74.60
2018-04-08T23:54:08.531Z,75.90
2018-04-08T23:56:36.364Z,77.10
2018-04-08T23:59:04.127Z,78.10
